createdAt,value
2019-05-22T00:03:47.327Z,226.20
2019-05-22T00:09:09.883Z,203.17
2019-05-22T00:14:29.347Z,193.73
2019-05-22T00:19:49.960Z,180.63
2019-05-22T00:25:10.629Z,176.40
2019-05-22T00:30:32.098Z,176.53
2019-05-22T00:35:52.776Z,193.77
2019-05-22T00:41:11.919Z,207.00
2019-05-22T00:46:30.450Z,205.70
2019-05-22T00:52:07.014Z,183.10
2019-05-22T00:57:43.515Z,173.75
2019-05-22T01:03:02.686Z,153.83
2019-05-22T01:08:22.169Z,138.60
2019-05-22T01:13:42.401Z,135.10
2019-05-22T01:19:02.747Z,123.70
2019-05-22T01:24:23.328Z,115.70
2019-05-22T01:29:43.793Z,119.73
2019-05-22T01:35:09.191Z,129.97
2019-05-22T01:40:44.583Z,144.47
2019-05-22T01:46:03.859Z,177.87
2019-05-22T01:51:22.640Z,211.27
2019-05-22T01:56:42.035Z,178.93
2019-05-22T02:02:01.127Z,165.60
2019-05-22T02:07:21.113Z,166.30
2019-05-22T02:12:51.325Z,186.43
2019-05-22T02:18:15.202Z,195.70
2019-05-22T02:23:35.711Z,186.70
2019-05-22T02:28:55.359Z,205.20
2019-05-22T02:34:15.136Z,182.03
2019-05-22T02:39:35.361Z,210.13
2019-05-22T02:44:54.593Z,115.60
2019-05-22T02:50:15.086Z,113.32
2019-05-22T02:55:33.735Z,118.87
2019-05-22T03:01:05.362Z,124.80
2019-05-22T03:06:24.095Z,71.87
2019-05-22T03:11:55.313Z,84.37
2019-05-22T03:17:30.422Z,48.67
2019-05-22T03:22:57.117Z,56.40
2019-05-22T03:28:17.157Z,57.13
2019-05-22T03:33:39.110Z,52.60
2019-05-22T03:38:58.135Z,60.73
2019-05-22T03:44:19.519Z,75.77
2019-05-22T03:49:38.593Z,81.03
2019-05-22T03:54:57.787Z,70.57
2019-05-22T04:00:19.644Z,60.08
2019-05-22T04:05:38.832Z,60.53
2019-05-22T04:11:04.785Z,49.80
2019-05-22T04:16:28.381Z,40.17
2019-05-22T04:21:47.379Z,44.47
2019-05-22T04:27:06.874Z,47.60
2019-05-22T04:32:33.314Z,42.17
2019-05-22T04:38:04.585Z,39.67
2019-05-22T04:43:24.360Z,42.43
2019-05-22T04:48:46.117Z,35.92
2019-05-22T04:54:04.546Z,43.47
2019-05-22T04:59:24.051Z,40.87
2019-05-22T05:04:46.934Z,32.80
2019-05-22T05:10:06.956Z,40.77
2019-05-22T05:15:25.566Z,32.37
2019-05-22T05:20:44.615Z,37.27
2019-05-22T05:26:03.526Z,42.93
2019-05-22T05:31:24.061Z,36.10
2019-05-22T05:36:44.363Z,34.00
2019-05-22T05:42:03.588Z,33.23
2019-05-22T05:47:22.635Z,32.30
2019-05-22T05:52:42.049Z,35.23
2019-05-22T05:58:05.294Z,33.13
2019-05-22T06:03:43.068Z,35.40
2019-05-22T06:09:03.597Z,42.57
2019-05-22T06:14:29.179Z,37.07
2019-05-22T06:19:50.741Z,34.43
2019-05-22T06:25:10.697Z,34.57
2019-05-22T06:30:41.328Z,41.93
2019-05-22T06:36:02.610Z,31.20
2019-05-22T06:41:24.186Z,37.67
2019-05-22T06:46:45.545Z,37.20
2019-05-22T06:52:06.288Z,33.77
2019-05-22T06:57:27.320Z,33.40
2019-05-22T07:02:45.959Z,37.83
2019-05-22T07:08:05.904Z,37.13
2019-05-22T07:13:24.666Z,37.23
2019-05-22T07:18:43.543Z,35.23
2019-05-22T07:24:02.112Z,36.57
2019-05-22T07:29:21.171Z,33.93
2019-05-22T07:34:40.174Z,37.27
2019-05-22T07:39:59.017Z,30.87
2019-05-22T07:45:18.096Z,34.43
2019-05-22T07:50:39.061Z,37.43
2019-05-22T07:55:59.837Z,29.87
2019-05-22T08:01:18.571Z,27.73
2019-05-22T08:06:37.311Z,31.13
2019-05-22T08:11:57.433Z,29.57
2019-05-22T08:17:17.578Z,33.47
2019-05-22T08:22:37.824Z,32.17
2019-05-22T08:27:57.011Z,40.97
2019-05-22T08:33:17.133Z,33.30
2019-05-22T08:38:37.461Z,27.90
2019-05-22T08:44:14.301Z,35.90
2019-05-22T08:49:17.240Z,33.73
2019-05-22T08:54:35.977Z,29.83
2019-05-22T08:59:54.712Z,41.57
2019-05-22T09:05:15.020Z,34.70
2019-05-22T09:10:33.946Z,32.17
2019-05-22T09:15:53.781Z,34.77
2019-05-22T09:21:12.367Z,33.87
2019-05-22T09:26:31.878Z,26.87
2019-05-22T09:31:50.831Z,23.20
2019-05-22T09:37:09.765Z,21.50
2019-05-22T09:42:28.928Z,24.87
2019-05-22T09:47:47.853Z,23.57
2019-05-22T09:53:08.940Z,28.43
2019-05-22T09:58:27.792Z,27.83
2019-05-22T10:03:46.435Z,24.07
2019-05-22T10:09:07.471Z,27.80
2019-05-22T10:14:26.163Z,26.10
2019-05-22T10:19:45.062Z,29.23
2019-05-22T10:25:15.664Z,28.10
2019-05-22T10:30:25.632Z,24.57
2019-05-22T10:35:44.260Z,29.30
2019-05-22T10:41:02.945Z,30.60
2019-05-22T10:46:22.113Z,29.48
2019-05-22T10:51:40.736Z,30.27
2019-05-22T10:56:59.512Z,31.33
2019-05-22T11:02:18.325Z,24.90
2019-05-22T11:07:36.957Z,23.13
2019-05-22T11:12:55.882Z,28.83
2019-05-22T11:18:14.627Z,19.03
2019-05-22T11:23:48.675Z,22.40
2019-05-22T11:28:53.584Z,18.93
2019-05-22T11:34:12.387Z,17.17
2019-05-22T11:39:39.403Z,16.00
2019-05-22T11:44:52.681Z,23.23
2019-05-22T11:50:14.602Z,21.23
2019-05-22T11:55:43.934Z,17.60
2019-05-22T12:00:55.460Z,19.03
2019-05-22T12:06:14.671Z,15.60
2019-05-22T12:11:33.487Z,19.10
2019-05-22T12:16:53.538Z,19.03
2019-05-22T12:22:12.485Z,17.33
2019-05-22T12:27:31.230Z,14.83
2019-05-22T12:32:50.501Z,12.40
2019-05-22T12:38:10.227Z,14.37
2019-05-22T12:43:31.725Z,14.73
2019-05-22T12:48:50.371Z,14.97
2019-05-22T12:54:09.339Z,15.70
2019-05-22T12:59:28.283Z,15.47
2019-05-22T13:04:47.802Z,12.33
2019-05-22T13:10:08.968Z,11.53
2019-05-22T13:15:27.816Z,12.23
2019-05-22T13:20:53.045Z,12.93
2019-05-22T13:26:11.909Z,17.77
2019-05-22T13:31:30.553Z,13.10
2019-05-22T13:36:50.756Z,11.50
2019-05-22T13:42:15.203Z,11.50
2019-05-22T13:47:34.340Z,12.07
2019-05-22T13:52:54.364Z,13.47
2019-05-22T13:58:13.287Z,13.53
2019-05-22T14:03:32.536Z,9.77
2019-05-22T14:08:51.351Z,11.93
2019-05-22T14:14:12.715Z,14.57
2019-05-22T14:19:31.440Z,11.83
2019-05-22T14:24:50.153Z,12.57
2019-05-22T14:30:12.302Z,8.00
2019-05-22T14:35:46.972Z,17.17
2019-05-22T14:40:53.126Z,8.70
2019-05-22T14:46:12.384Z,11.37
2019-05-22T14:51:31.767Z,6.73
2019-05-22T14:56:50.872Z,10.50
2019-05-22T15:02:10.278Z,11.57
2019-05-22T15:07:28.953Z,11.33
2019-05-22T15:12:47.934Z,12.03
2019-05-22T15:18:07.321Z,11.03
2019-05-22T15:23:27.587Z,11.73
2019-05-22T15:28:46.763Z,10.60
2019-05-22T15:34:06.263Z,15.00
2019-05-22T15:39:25.592Z,10.43
2019-05-22T15:44:45.010Z,18.70
2019-05-22T15:50:06.270Z,12.33
2019-05-22T15:55:26.617Z,11.70
2019-05-22T16:00:47.700Z,15.60
2019-05-22T16:06:07.612Z,13.77
2019-05-22T16:11:28.421Z,11.53
2019-05-22T16:16:49.214Z,13.80
2019-05-22T16:22:09.450Z,9.43
2019-05-22T16:27:31.165Z,11.57
2019-05-22T16:32:50.996Z,8.70
2019-05-22T16:38:09.821Z,12.83
2019-05-22T16:43:47.446Z,9.50
2019-05-22T16:48:49.598Z,12.93
2019-05-22T16:54:09.585Z,11.37
2019-05-22T16:59:29.124Z,11.23
2019-05-22T17:04:48.738Z,17.20
2019-05-22T17:10:11.176Z,13.70
2019-05-22T17:15:30.778Z,11.13
2019-05-22T17:20:50.379Z,11.57
2019-05-22T17:26:09.286Z,11.07
2019-05-22T17:31:29.671Z,11.03
2019-05-22T17:36:48.343Z,13.67
2019-05-22T17:42:08.966Z,8.17
2019-05-22T17:47:29.393Z,12.37
2019-05-22T17:52:49.155Z,8.40
2019-05-22T17:58:08.764Z,11.17
2019-05-22T18:03:27.450Z,15.90
2019-05-22T18:08:46.279Z,13.90
2019-05-22T18:14:05.944Z,12.07
2019-05-22T18:19:25.160Z,12.13
2019-05-22T18:24:43.864Z,11.87
2019-05-22T18:30:02.583Z,12.50
2019-05-22T18:35:21.445Z,12.37
2019-05-22T18:40:40.394Z,14.60
2019-05-22T18:45:59.357Z,17.53
2019-05-22T18:51:18.503Z,15.45
2019-05-22T18:56:37.199Z,12.97
2019-05-22T19:01:56.243Z,18.17
2019-05-22T19:07:15.092Z,15.37
2019-05-22T19:12:33.939Z,14.30
2019-05-22T19:17:52.772Z,14.43
2019-05-22T19:23:11.635Z,16.60
2019-05-22T19:28:42.851Z,17.10
2019-05-22T19:33:51.033Z,18.43
2019-05-22T19:39:10.508Z,20.60
2019-05-22T19:44:29.069Z,22.53
2019-05-22T19:49:47.745Z,17.63
2019-05-22T19:55:07.801Z,18.23
2019-05-22T20:00:26.459Z,17.80
2019-05-22T20:05:45.874Z,17.93
2019-05-22T20:11:04.989Z,23.60
2019-05-22T20:16:23.993Z,20.67
2019-05-22T20:21:42.609Z,17.10
2019-05-22T20:27:01.186Z,19.13
2019-05-22T20:32:20.748Z,15.53
2019-05-22T20:37:40.452Z,18.93
2019-05-22T20:42:59.762Z,27.20
2019-05-22T20:48:25.760Z,20.23
2019-05-22T20:53:54.195Z,20.77
2019-05-22T20:59:06.618Z,21.00
2019-05-22T21:04:27.215Z,22.43
2019-05-22T21:09:45.690Z,28.00
2019-05-22T21:15:05.798Z,18.23
2019-05-22T21:20:26.075Z,27.70
2019-05-22T21:25:44.769Z,23.43
2019-05-22T21:31:04.162Z,23.00
2019-05-22T21:36:24.715Z,22.40
2019-05-22T21:41:43.836Z,24.07
2019-05-22T21:47:03.253Z,22.57
2019-05-22T21:52:22.545Z,29.40
2019-05-22T21:57:42.242Z,28.30
2019-05-22T22:03:03.358Z,30.50
2019-05-22T22:08:22.030Z,31.60
2019-05-22T22:13:42.262Z,30.43
2019-05-22T22:19:01.406Z,27.10
2019-05-22T22:24:20.051Z,28.77
2019-05-22T22:29:38.598Z,33.07
2019-05-22T22:34:57.726Z,30.83
2019-05-22T22:40:18.660Z,34.98
2019-05-22T22:45:43.390Z,35.23
2019-05-22T22:51:05.927Z,29.00
2019-05-22T22:56:25.459Z,33.00
2019-05-22T23:01:47.148Z,36.83
2019-05-22T23:07:07.930Z,33.63
2019-05-22T23:12:28.160Z,36.27
2019-05-22T23:17:48.312Z,46.20
2019-05-22T23:23:07.025Z,44.13
2019-05-22T23:28:34.622Z,52.47
2019-05-22T23:33:46.147Z,41.37
2019-05-22T23:39:08.600Z,41.92
2019-05-22T23:44:28.388Z,35.27
2019-05-22T23:49:46.950Z,38.80
2019-05-22T23:55:09.758Z,44.37
